createdAt,value
2023-01-28T00:00:09.686Z,88.36
2023-01-28T00:02:57.817Z,88.40
2023-01-28T00:05:26.046Z,88.42
2023-01-28T00:07:53.910Z,88.41
2023-01-28T00:10:21.766Z,88.45
2023-01-28T00:12:51.060Z,88.46
2023-01-28T00:15:19.105Z,88.46
2023-01-28T00:17:47.032Z,88.41
2023-01-28T00:20:15.152Z,88.40
2023-01-28T00:22:51.824Z,88.39
2023-01-28T00:25:20.090Z,88.38
2023-01-28T00:27:49.609Z,88.35
2023-01-28T00:30:19.436Z,88.31
2023-01-28T00:32:48.666Z,88.33
2023-01-28T00:35:16.991Z,88.33
2023-01-28T00:37:48.316Z,88.34
2023-01-28T00:40:16.927Z,88.35
2023-01-28T00:42:44.842Z,88.36
2023-01-28T00:45:13.472Z,88.44
2023-01-28T00:47:41.481Z,88.35
2023-01-28T00:50:10.043Z,88.35
2023-01-28T00:52:38.558Z,88.33
2023-01-28T00:55:07.300Z,88.26
2023-01-28T00:57:35.242Z,88.22
2023-01-28T01:00:05.969Z,88.22
2023-01-28T01:02:33.981Z,88.20
2023-01-28T01:05:02.536Z,88.23
2023-01-28T01:07:43.908Z,88.24
2023-01-28T01:10:15.855Z,88.18
2023-01-28T01:12:47.811Z,88.17
2023-01-28T01:15:17.604Z,88.18
2023-01-28T01:17:48.709Z,88.16
2023-01-28T01:20:22.361Z,88.16
2023-01-28T01:22:52.170Z,88.20
2023-01-28T01:25:20.505Z,88.24
2023-01-28T01:27:50.215Z,88.23
2023-01-28T01:30:19.217Z,88.24
2023-01-28T01:32:47.815Z,88.24
2023-01-28T01:35:16.443Z,88.27
2023-01-28T01:37:45.111Z,88.27
2023-01-28T01:40:13.352Z,88.27
2023-01-28T01:42:41.941Z,88.27
2023-01-28T01:45:17.821Z,88.28
2023-01-28T01:48:03.971Z,88.30
2023-01-28T01:50:39.759Z,88.26
2023-01-28T01:53:11.592Z,88.26
2023-01-28T01:55:43.426Z,88.29
2023-01-28T01:58:17.747Z,88.31
2023-01-28T02:00:46.576Z,88.32
2023-01-28T02:03:17.856Z,88.37
2023-01-28T02:05:45.694Z,88.45
2023-01-28T02:08:23.154Z,88.52
2023-01-28T02:10:59.069Z,88.60
2023-01-28T02:13:31.586Z,88.64
2023-01-28T02:16:02.618Z,88.67
2023-01-28T02:18:32.861Z,88.72
2023-01-28T02:21:19.232Z,88.75
2023-01-28T02:24:05.860Z,88.78
2023-01-28T02:26:36.908Z,88.81
2023-01-28T02:29:17.194Z,88.83
2023-01-28T02:31:52.816Z,88.85
2023-01-28T02:34:43.301Z,88.83
2023-01-28T02:37:21.594Z,88.80
2023-01-28T02:39:55.329Z,88.77
2023-01-28T02:42:29.879Z,88.74
2023-01-28T02:44:58.643Z,88.71
2023-01-28T02:47:56.598Z,88.70
2023-01-28T02:50:32.464Z,88.70
2023-01-28T02:53:41.273Z,88.72
2023-01-28T02:56:15.363Z,88.74
2023-01-28T02:58:52.849Z,88.73
2023-01-28T03:01:43.090Z,88.71
2023-01-28T03:04:34.639Z,88.70
2023-01-28T03:07:07.065Z,88.71
2023-01-28T03:09:37.938Z,88.74
2023-01-28T03:12:29.360Z,88.78
2023-01-28T03:15:35.433Z,88.81
2023-01-28T03:18:43.749Z,88.82
2023-01-28T03:21:41.305Z,88.83
2023-01-28T03:24:45.228Z,88.83
2023-01-28T03:27:47.845Z,88.84
2023-01-28T03:30:41.788Z,88.89
2023-01-28T03:33:33.945Z,89.00
2023-01-28T03:36:21.173Z,89.22
2023-01-28T03:38:51.377Z,89.37
2023-01-28T03:41:25.160Z,89.46
2023-01-28T03:43:56.305Z,89.52
2023-01-28T03:46:24.381Z,89.57
2023-01-28T03:48:52.994Z,89.62
2023-01-28T03:51:21.540Z,89.69
2023-01-28T03:53:50.727Z,89.73
2023-01-28T03:56:19.941Z,89.78
2023-01-28T03:58:56.692Z,89.81
2023-01-28T04:02:46.294Z,89.85
2023-01-28T04:05:16.389Z,89.91
2023-01-28T04:07:51.699Z,89.96
2023-01-28T04:10:27.248Z,90.00
2023-01-28T04:12:58.655Z,90.05
2023-01-28T04:15:27.045Z,90.10
2023-01-28T04:17:56.168Z,90.19
2023-01-28T04:20:28.114Z,90.30
2023-01-28T04:22:58.761Z,90.36
2023-01-28T04:25:27.052Z,90.26
2023-01-28T04:27:55.297Z,90.29
2023-01-28T04:34:36.936Z,90.02
2023-01-28T04:37:25.160Z,89.92
2023-01-28T04:40:12.303Z,89.92
2023-01-28T04:43:00.478Z,89.95
2023-01-28T04:45:50.938Z,90.02
2023-01-28T04:48:36.521Z,90.08
2023-01-28T04:51:27.710Z,90.12
2023-01-28T04:54:18.840Z,90.15
2023-01-28T04:56:46.877Z,90.16
2023-01-28T04:59:15.305Z,90.19
2023-01-28T05:01:44.152Z,90.22
2023-01-28T05:04:12.569Z,90.26
2023-01-28T05:06:40.795Z,90.31
2023-01-28T05:09:13.201Z,90.37
2023-01-28T05:11:42.444Z,90.41
2023-01-28T05:14:10.357Z,90.48
2023-01-28T05:17:01.330Z,90.97
2023-01-28T05:20:16.048Z,91.35
2023-01-28T05:22:46.537Z,91.47
2023-01-28T05:25:20.933Z,91.28
2023-01-28T05:27:52.687Z,90.94
2023-01-28T05:30:21.824Z,90.68
2023-01-28T05:32:50.463Z,90.51
2023-01-28T05:35:22.917Z,90.43
2023-01-28T05:37:51.713Z,90.40
2023-01-28T05:40:20.666Z,90.42
2023-01-28T05:42:48.728Z,90.45
2023-01-28T05:45:35.319Z,90.48
2023-01-28T05:48:16.503Z,90.52
2023-01-28T05:51:05.450Z,90.57
2023-01-28T05:53:38.866Z,90.60
2023-01-28T05:56:07.810Z,90.65
2023-01-28T05:58:37.066Z,90.70
2023-01-28T06:01:05.141Z,90.76
2023-01-28T06:03:39.965Z,90.82
2023-01-28T06:06:07.938Z,90.86
2023-01-28T06:08:37.591Z,90.90
2023-01-28T06:11:05.825Z,90.95
2023-01-28T06:13:35.138Z,90.99
2023-01-28T06:16:03.955Z,91.03
2023-01-28T06:19:23.081Z,91.06
2023-01-28T06:21:51.718Z,91.08
2023-01-28T06:24:21.504Z,91.09
2023-01-28T06:26:50.110Z,91.11
2023-01-28T06:29:19.454Z,91.11
2023-01-28T06:31:47.693Z,91.14
2023-01-28T06:34:15.557Z,91.18
2023-01-28T06:36:43.521Z,91.20
2023-01-28T06:39:11.707Z,91.22
2023-01-28T06:41:39.709Z,91.23
2023-01-28T06:44:07.664Z,91.22
2023-01-28T06:46:35.945Z,91.25
2023-01-28T06:49:04.169Z,91.28
2023-01-28T06:51:32.258Z,91.28
2023-01-28T06:54:00.548Z,91.29
2023-01-28T06:56:28.549Z,91.31
2023-01-28T06:58:56.463Z,91.34
2023-01-28T07:01:24.845Z,91.36
2023-01-28T07:03:52.797Z,91.37
2023-01-28T07:06:20.697Z,91.38
2023-01-28T07:08:49.151Z,91.39
2023-01-28T07:11:17.729Z,91.42
2023-01-28T07:13:46.644Z,91.41
2023-01-28T07:16:14.730Z,91.42
2023-01-28T07:18:42.808Z,91.45
2023-01-28T07:21:10.775Z,91.47
2023-01-28T07:23:40.006Z,91.48
2023-01-28T07:26:08.014Z,91.45
2023-01-28T07:28:35.887Z,91.42
2023-01-28T07:31:04.056Z,91.42
2023-01-28T07:33:32.093Z,91.43
2023-01-28T07:36:00.146Z,91.44
2023-01-28T07:38:28.098Z,91.44
2023-01-28T07:40:56.124Z,91.45
2023-01-28T07:43:24.223Z,91.47
2023-01-28T07:45:52.166Z,91.62
2023-01-28T07:48:20.546Z,91.80
2023-01-28T07:50:49.789Z,91.94
2023-01-28T07:53:19.072Z,92.04
2023-01-28T07:55:47.089Z,92.11
2023-01-28T07:58:15.034Z,92.14
2023-01-28T08:00:43.029Z,92.14
2023-01-28T08:03:15.769Z,92.14
2023-01-28T08:05:49.593Z,92.12
2023-01-28T08:08:17.615Z,92.08
2023-01-28T08:10:46.076Z,92.04
2023-01-28T08:13:15.429Z,92.01
2023-01-28T08:15:44.753Z,91.96
2023-01-28T08:18:14.895Z,91.92
2023-01-28T08:20:44.900Z,91.88
2023-01-28T08:23:18.209Z,91.85
2023-01-28T08:25:47.688Z,91.82
2023-01-28T08:28:17.067Z,91.76
2023-01-28T08:30:45.383Z,91.72
2023-01-28T08:33:15.858Z,91.67
2023-01-28T08:35:44.224Z,91.63
2023-01-28T08:38:13.775Z,91.58
2023-01-28T08:40:41.727Z,91.48
2023-01-28T08:43:09.707Z,91.37
2023-01-28T08:45:40.577Z,91.29
2023-01-28T08:48:14.891Z,91.21
2023-01-28T08:50:43.543Z,91.14
2023-01-28T08:53:14.298Z,91.12
2023-01-28T08:55:42.598Z,91.09
2023-01-28T08:58:14.215Z,91.08
2023-01-28T09:00:43.452Z,91.07
2023-01-28T09:03:11.904Z,91.09
2023-01-28T09:05:40.286Z,91.09
2023-01-28T09:08:13.585Z,91.05
2023-01-28T09:10:42.373Z,91.02
2023-01-28T09:13:14.176Z,91.02
2023-01-28T09:15:42.764Z,91.03
2023-01-28T09:18:10.969Z,91.06
2023-01-28T09:20:39.551Z,91.06
2023-01-28T09:23:07.542Z,91.07
2023-01-28T09:25:38.785Z,91.08
2023-01-28T09:28:06.796Z,91.08
2023-01-28T09:30:37.269Z,91.09
2023-01-28T09:33:06.539Z,91.07
2023-01-28T09:35:35.166Z,91.03
2023-01-28T09:38:03.378Z,91.00
2023-01-28T09:40:40.282Z,90.97
2023-01-28T09:43:47.463Z,90.92
2023-01-28T09:46:18.557Z,90.89
2023-01-28T09:48:51.427Z,90.87
2023-01-28T09:51:31.842Z,90.85
2023-01-28T09:54:06.027Z,90.83
2023-01-28T09:56:44.102Z,90.83
2023-01-28T09:59:21.153Z,90.82
2023-01-28T10:01:49.509Z,90.77
2023-01-28T10:05:00.201Z,90.70
2023-01-28T10:07:42.024Z,90.49
2023-01-28T10:10:16.580Z,90.51
2023-01-28T10:12:50.704Z,90.58
2023-01-28T10:15:47.108Z,90.66
2023-01-28T10:18:17.956Z,90.74
2023-01-28T10:20:55.349Z,90.76
2023-01-28T10:23:41.343Z,90.74
2023-01-28T10:26:23.006Z,90.68
2023-01-28T10:28:56.615Z,90.62
2023-01-28T10:31:31.886Z,90.59
2023-01-28T10:34:00.759Z,90.59
2023-01-28T10:36:29.593Z,90.61
2023-01-28T10:38:58.393Z,90.63
2023-01-28T10:41:26.882Z,90.64
2023-01-28T10:43:57.200Z,90.65
2023-01-28T10:46:34.926Z,90.63
2023-01-28T10:49:11.172Z,90.63
2023-01-28T10:51:41.781Z,90.60
2023-01-28T10:54:26.127Z,90.57
2023-01-28T10:57:05.891Z,90.56
2023-01-28T10:59:42.085Z,90.56
2023-01-28T11:04:37.998Z,90.47
2023-01-28T11:07:17.405Z,90.43
2023-01-28T11:09:47.994Z,90.49
2023-01-28T11:12:29.369Z,90.54
2023-01-28T11:15:03.549Z,90.59
2023-01-28T11:17:50.051Z,90.65
2023-01-28T11:20:22.925Z,90.69
2023-01-28T11:22:51.873Z,90.70
2023-01-28T11:25:29.482Z,90.69
2023-01-28T11:27:59.461Z,90.70
2023-01-28T11:30:37.595Z,90.67
2023-01-28T11:33:18.829Z,90.63
2023-01-28T11:35:55.225Z,90.60
2023-01-28T11:38:26.020Z,90.55
2023-01-28T11:40:56.805Z,90.51
2023-01-28T11:43:30.361Z,90.42
2023-01-28T11:46:05.406Z,90.34
2023-01-28T11:49:07.411Z,90.30
2023-01-28T11:51:45.692Z,90.21
2023-01-28T11:54:35.196Z,90.11
2023-01-28T11:57:24.131Z,89.99
2023-01-28T12:00:16.962Z,89.80
2023-01-28T12:03:03.035Z,89.71
2023-01-28T12:05:48.892Z,89.73
2023-01-28T12:08:21.154Z,89.76
2023-01-28T12:11:17.159Z,89.78
2023-01-28T12:14:10.429Z,89.70
2023-01-28T12:16:50.396Z,89.72
2023-01-28T12:19:30.373Z,89.70
2023-01-28T12:22:13.678Z,89.70
2023-01-28T12:24:50.766Z,89.76
2023-01-28T12:27:51.161Z,89.83
2023-01-28T12:30:34.432Z,89.90
2023-01-28T12:33:25.361Z,89.93
2023-01-28T12:36:07.166Z,89.94
2023-01-28T12:39:02.367Z,89.95
2023-01-28T12:41:40.042Z,89.98
2023-01-28T12:44:38.508Z,89.99
2023-01-28T12:47:10.907Z,90.01
2023-01-28T12:49:50.878Z,90.01
2023-01-28T12:52:33.191Z,90.00
2023-01-28T12:55:43.107Z,90.01
2023-01-28T12:58:23.827Z,90.01
2023-01-28T13:01:00.084Z,89.98
2023-01-28T13:03:35.473Z,89.96
2023-01-28T13:06:10.646Z,89.95
2023-01-28T13:08:38.780Z,89.90
2023-01-28T13:11:12.367Z,89.85
2023-01-28T13:13:42.815Z,89.82
2023-01-28T13:16:12.943Z,89.84
2023-01-28T13:18:41.064Z,89.86
2023-01-28T13:21:17.167Z,89.87
2023-01-28T13:23:47.618Z,89.85
2023-01-28T13:26:18.594Z,89.86
2023-01-28T13:28:49.209Z,89.78
2023-01-28T13:31:21.127Z,89.72
2023-01-28T13:34:02.805Z,89.69
2023-01-28T13:36:34.356Z,89.65
2023-01-28T13:39:06.250Z,89.66
2023-01-28T13:41:46.130Z,89.66
2023-01-28T13:44:34.351Z,89.65
2023-01-28T13:47:09.107Z,89.61
2023-01-28T13:49:47.822Z,89.60
2023-01-28T13:52:23.266Z,89.56
2023-01-28T13:55:06.389Z,89.51
2023-01-28T13:58:04.631Z,89.50
2023-01-28T14:00:35.636Z,89.51
2023-01-28T14:03:15.691Z,89.52
2023-01-28T14:05:58.658Z,89.52
2023-01-28T14:08:38.712Z,89.48
2023-01-28T14:14:49.040Z,89.50
2023-01-28T14:17:28.981Z,89.52
2023-01-28T14:19:58.590Z,89.53
2023-01-28T14:22:27.073Z,89.55
2023-01-28T14:25:00.255Z,89.58
2023-01-28T14:27:35.392Z,89.60
2023-01-28T14:30:18.525Z,89.60
2023-01-28T14:32:48.410Z,89.60
2023-01-28T14:35:20.975Z,89.61
2023-01-28T14:37:49.080Z,89.61
2023-01-28T14:40:18.009Z,89.64
2023-01-28T14:42:49.164Z,89.66
2023-01-28T14:45:35.730Z,89.69
2023-01-28T14:48:43.355Z,89.72
2023-01-28T14:51:31.215Z,89.75
2023-01-28T14:54:13.728Z,89.75
2023-01-28T14:57:00.540Z,89.77
2023-01-28T14:59:39.191Z,89.76
2023-01-28T15:02:18.373Z,89.75
2023-01-28T15:04:47.021Z,89.76
2023-01-28T15:07:24.329Z,89.78
2023-01-28T15:10:07.488Z,89.79
2023-01-28T15:12:39.655Z,89.80
2023-01-28T15:15:20.811Z,89.82
2023-01-28T15:17:49.735Z,89.84
2023-01-28T15:20:23.960Z,89.81
2023-01-28T15:22:53.693Z,89.72
2023-01-28T15:25:24.298Z,89.62
2023-01-28T15:27:56.166Z,89.51
2023-01-28T15:30:30.150Z,89.42
2023-01-28T15:33:11.962Z,89.34
2023-01-28T15:35:50.921Z,89.31
2023-01-28T15:38:19.151Z,89.30
2023-01-28T15:40:52.192Z,89.31
2023-01-28T15:43:24.445Z,89.33
2023-01-28T15:45:56.025Z,89.34
2023-01-28T15:48:27.464Z,89.36
2023-01-28T15:51:05.876Z,89.38
2023-01-28T15:53:42.180Z,89.37
2023-01-28T15:56:15.645Z,89.34
2023-01-28T15:58:43.720Z,89.27
2023-01-28T16:01:18.510Z,89.18
2023-01-28T16:04:00.970Z,89.12
2023-01-28T16:06:36.255Z,89.09
2023-01-28T16:09:37.269Z,89.08
2023-01-28T16:12:12.463Z,89.09
2023-01-28T16:14:45.422Z,89.10
2023-01-28T16:17:19.837Z,89.13
2023-01-28T16:19:51.331Z,89.16
2023-01-28T16:22:22.261Z,89.20
2023-01-28T16:24:52.956Z,89.22
2023-01-28T16:27:26.486Z,89.23
2023-01-28T16:29:54.375Z,89.24
2023-01-28T16:32:39.556Z,89.26
2023-01-28T16:35:18.477Z,89.24
2023-01-28T16:37:48.494Z,89.20
2023-01-28T16:40:22.334Z,89.17
2023-01-28T16:42:53.583Z,89.14
2023-01-28T16:45:25.907Z,89.06
2023-01-28T16:47:54.006Z,88.95
2023-01-28T16:50:23.177Z,88.78
2023-01-28T16:52:54.312Z,88.60
2023-01-28T16:55:22.744Z,88.30
2023-01-28T16:57:53.910Z,88.14
2023-01-28T17:00:27.571Z,88.05
2023-01-28T17:02:55.547Z,87.94
2023-01-28T17:05:23.563Z,87.77
2023-01-28T17:07:54.241Z,87.53
2023-01-28T17:10:22.397Z,87.13
2023-01-28T17:12:50.465Z,86.90
2023-01-28T17:15:19.136Z,86.74
2023-01-28T17:17:49.403Z,86.65
2023-01-28T17:20:17.518Z,86.56
2023-01-28T17:22:45.877Z,86.49
2023-01-28T17:25:14.937Z,86.47
2023-01-28T17:27:43.292Z,86.47
2023-01-28T17:30:11.803Z,86.53
2023-01-28T17:32:39.764Z,86.50
2023-01-28T17:35:08.392Z,86.51
2023-01-28T17:37:38.351Z,86.44
2023-01-28T17:40:07.225Z,86.42
2023-01-28T17:42:35.294Z,86.21
2023-01-28T17:45:03.487Z,85.88
2023-01-28T17:47:32.107Z,85.84
2023-01-28T17:50:00.502Z,85.88
2023-01-28T17:52:29.133Z,85.97
2023-01-28T17:54:57.348Z,86.01
2023-01-28T17:57:25.210Z,86.05
2023-01-28T17:59:53.422Z,86.02
2023-01-28T18:02:21.482Z,86.05
2023-01-28T18:04:49.523Z,86.11
2023-01-28T18:07:17.529Z,86.16
2023-01-28T18:09:48.593Z,86.20
2023-01-28T18:12:16.632Z,86.19
2023-01-28T18:14:44.803Z,86.23
2023-01-28T18:17:13.132Z,86.19
2023-01-28T18:19:41.097Z,86.11
2023-01-28T18:22:09.150Z,86.03
2023-01-28T18:24:37.490Z,86.00
2023-01-28T18:27:05.656Z,85.94
2023-01-28T18:29:33.648Z,85.92
2023-01-28T18:32:01.659Z,85.87
2023-01-28T18:34:31.652Z,85.71
2023-01-28T18:37:00.329Z,85.65
2023-01-28T18:39:30.316Z,85.62
2023-01-28T18:41:59.158Z,85.61
2023-01-28T18:44:30.081Z,85.56
2023-01-28T18:46:58.079Z,85.54
2023-01-28T18:49:26.037Z,85.60
2023-01-28T18:51:54.103Z,85.57
2023-01-28T18:54:23.278Z,85.57
2023-01-28T18:56:51.539Z,85.55
2023-01-28T18:59:19.757Z,85.43
2023-01-28T19:04:34.961Z,85.17
2023-01-28T19:07:12.108Z,85.07
2023-01-28T19:09:48.976Z,84.91
2023-01-28T19:12:16.859Z,84.85
2023-01-28T19:14:44.724Z,84.88
2023-01-28T19:17:13.008Z,84.70
2023-01-28T19:19:40.883Z,84.52
2023-01-28T19:22:09.557Z,84.46
2023-01-28T19:24:37.525Z,84.45
2023-01-28T19:27:05.975Z,84.13
2023-01-28T19:29:34.118Z,84.01
2023-01-28T19:32:02.247Z,83.78
2023-01-28T19:34:30.983Z,83.53
2023-01-28T19:36:59.827Z,83.06
2023-01-28T19:39:27.668Z,82.76
2023-01-28T19:41:55.755Z,81.84
2023-01-28T19:44:23.534Z,81.70
2023-01-28T19:46:51.796Z,81.89
2023-01-28T19:49:20.051Z,81.77
2023-01-28T19:51:48.333Z,81.47
2023-01-28T19:54:16.346Z,81.77
2023-01-28T19:56:44.329Z,81.72
2023-01-28T19:59:12.947Z,81.65
2023-01-28T20:01:41.294Z,81.64
2023-01-28T20:04:09.177Z,81.41
2023-01-28T20:06:37.086Z,81.51
2023-01-28T20:09:17.453Z,81.39
2023-01-28T20:11:45.868Z,81.14
2023-01-28T20:14:15.029Z,80.98
2023-01-28T20:16:42.922Z,80.88
2023-01-28T20:19:16.944Z,81.00
2023-01-28T20:21:46.291Z,80.99
2023-01-28T20:24:15.360Z,81.04
2023-01-28T20:26:43.942Z,80.93
2023-01-28T20:29:20.744Z,80.47
2023-01-28T20:32:01.085Z,80.22
2023-01-28T20:34:36.897Z,79.89
2023-01-28T20:37:06.560Z,79.94
2023-01-28T20:39:34.502Z,80.05
2023-01-28T20:42:03.517Z,80.16
2023-01-28T20:44:32.211Z,80.27
2023-01-28T20:47:00.512Z,80.25
2023-01-28T20:49:28.921Z,80.28
2023-01-28T20:51:57.220Z,80.14
2023-01-28T20:54:25.603Z,79.62
2023-01-28T20:56:53.777Z,79.54
2023-01-28T20:59:22.624Z,79.38
2023-01-28T21:01:50.618Z,79.19
2023-01-28T21:04:18.520Z,79.13
2023-01-28T21:06:46.487Z,79.36
2023-01-28T21:09:15.325Z,79.19
2023-01-28T21:11:43.289Z,78.87
2023-01-28T21:14:16.739Z,78.44
2023-01-28T21:16:44.800Z,77.96
2023-01-28T21:19:12.908Z,77.99
2023-01-28T21:21:43.014Z,78.11
2023-01-28T21:24:14.045Z,78.05
2023-01-28T21:26:41.883Z,77.89
2023-01-28T21:29:09.929Z,77.91
2023-01-28T21:31:39.442Z,78.02
2023-01-28T21:34:09.111Z,78.12
2023-01-28T21:36:37.568Z,78.26
2023-01-28T21:39:05.435Z,78.22
2023-01-28T21:41:33.707Z,78.09
2023-01-28T21:44:01.900Z,77.86
2023-01-28T21:46:32.267Z,77.58
2023-01-28T21:49:02.246Z,77.66
2023-01-28T21:51:36.483Z,77.54
2023-01-28T21:54:06.679Z,77.58
2023-01-28T21:56:34.538Z,77.78
2023-01-28T21:59:21.062Z,77.69
2023-01-28T22:01:49.503Z,77.34
2023-01-28T22:04:17.527Z,77.49
2023-01-28T22:06:45.619Z,77.58
2023-01-28T22:09:14.605Z,77.56
2023-01-28T22:11:45.170Z,77.47
2023-01-28T22:14:13.649Z,77.85
2023-01-28T22:16:42.223Z,77.69
2023-01-28T22:19:11.062Z,77.57
2023-01-28T22:21:44.253Z,77.40
2023-01-28T22:24:24.548Z,77.49
2023-01-28T22:26:54.080Z,77.84
2023-01-28T22:29:23.622Z,77.94
2023-01-28T22:31:53.320Z,77.92
2023-01-28T22:34:22.128Z,77.92
2023-01-28T22:36:51.173Z,77.90
2023-01-28T22:39:19.196Z,77.82
2023-01-28T22:41:47.784Z,77.49
2023-01-28T22:44:16.144Z,77.68
2023-01-28T22:46:44.122Z,77.78
2023-01-28T22:49:15.499Z,77.62
2023-01-28T22:51:43.751Z,77.79
2023-01-28T22:54:12.126Z,77.91
2023-01-28T22:56:40.248Z,78.05
2023-01-28T22:59:08.192Z,78.17
2023-01-28T23:01:36.772Z,78.28
2023-01-28T23:04:04.797Z,78.26
2023-01-28T23:06:33.708Z,78.18
2023-01-28T23:09:01.772Z,78.27
2023-01-28T23:11:29.958Z,78.20
2023-01-28T23:14:19.201Z,78.32
2023-01-28T23:17:06.741Z,78.19
2023-01-28T23:19:53.107Z,78.20
2023-01-28T23:22:50.591Z,78.01
2023-01-28T23:25:20.006Z,78.16
2023-01-28T23:27:48.071Z,78.24
2023-01-28T23:30:16.691Z,78.16
2023-01-28T23:32:49.506Z,77.87
2023-01-28T23:35:19.375Z,77.88
2023-01-28T23:37:48.532Z,77.79
2023-01-28T23:40:17.018Z,77.83
2023-01-28T23:42:49.492Z,77.84
2023-01-28T23:45:18.826Z,77.83
2023-01-28T23:47:47.152Z,77.77
2023-01-28T23:50:15.872Z,77.86
2023-01-28T23:52:44.084Z,77.83
2023-01-28T23:55:11.859Z,77.86
2023-01-28T23:57:39.764Z,77.91
